Airfield :
LOGIN :

Register | Disclaimer

   EN    FR    IT 

 










Legend :    VFR   Marginal VFR   IFR   Intensive IFR   Very Intensive IFR
Visi :
Ceiling :
>= 8 km
>= 3000ft
5 to 8 km
1000 to 3000 ft
1500m to 5 km
500 to 1000 ft
800 to 1500m
200 to 500 ft
< 800m
< 200 ft
Symbols :   Thunderstorms  Fog  Heavy snow  Heavy precipitations  Wind > 20 kt
SIGMETs :     Misc.  Thunderstorms  Icing  Turbulence  Mountain Waves  Volcanic Ashes






- Airport Elevation : 2001 ft
- IATA code : MAD


LEMD - Madrid

CURRENT METAR :
  • 041500Z 15012KT 110V170 9999 FEW060 17/03 Q1014 NOSIG

EXPIRED METARs :
  • 041430Z 16014KT 9999 FEW055 18/05 Q1015 NOSIG
  • 041400Z 14012KT 100V170 9999 FEW055 18/04 Q1015 NOSIG
  • 041330Z 15014KT 110V190 9999 SCT055 18/04 Q1015 NOSIG
  • 041300Z 14012KT 110V170 9999 FEW050 17/05 Q1015 NOSIG

TAF TAF LEMD
Valid from the 04 at 12:00 until the 05 at 18:00 UTC


041100Z 0412/0518 15012KT CAVOK TX19/0415Z TN08/0506Z
PROB40
TEMPO 0412/0420 16015G25KT
BECMG 0502/0505 16005KT



MET'MAP, your aeronautical weather chart ! - Copyright ORBIFLY December 2007 - Disclaimer

ORBIFLY MET'MAP TEAM :

Programming & Development : Alexandra Zaïnal
Concept & original design : Baudouin d'Aumeries
Assistance for programming : Marc-Olivier Méhu
Technical & hardware support : Manuel Goepfert

Contact : metmap@orbifly.com




SOURCES & CREDITS :

   NOAA